Deerfield, Illinois
Current Conditions -  °F | °C
As of 1:09 AM on Sunday 23 Nov 2014 (Local Time) from KPWK Reporting Station
Overcast Overcast  
Wind Chill: 52°   Ceiling: 1400
Heat Index: 52°   Visibility: 9mi
Dew Point: 47°   Wind: 16mph
Humidity: 83%   Direction: 190°S
Pressure: 29.83"   Gusts: NA
Location:  42.17°N, 87.85°W
Report Text: KPWK 230709Z AUTO 19014KT 9SM OVC014 11/08 A2983 RMK AO2 T01110083
Loading
Personal Weather Stations






























Interactive Weather Map New forecast layout! Learn more

10-Day Weather Forecast

Advertisements
Track Severe Weather on mobile